Arbor, Missouri
Current Conditions -  °F | °C
As of 2:53 AM on Monday 22 Dec 2014 (Local Time) from KCGI Reporting Station
Overcast Overcast  
Wind Chill: 39°   Ceiling: 8000
Heat Index: 43°   Visibility: 10mi
Dew Point: 36°   Wind: 6mph
Humidity: 76%   Direction: 130°SE
Pressure: 29.89"   Gusts: NA
Location:  37.1651°N, 89.623°W
Report Text: KCGI 220853Z AUTO 13005KT 10SM SCT024 OVC080 06/02 A2989 RMK AO2 SLP121 T00610022 58019 TSNO
Loading
Personal Weather Stations






























Interactive Weather Map New forecast layout! Learn more

10-Day Weather Forecast

Advertisements
Track Severe Weather on mobile